createdAt,value
2019-03-27T00:00:52.672Z,18.4
2019-03-27T00:01:52.539Z,18.39
2019-03-27T00:02:52.575Z,18.38
2019-03-27T00:03:52.480Z,18.36
2019-03-27T00:04:52.570Z,18.36
2019-03-27T00:05:52.583Z,18.36
2019-03-27T00:06:52.623Z,18.36
2019-03-27T00:07:52.548Z,18.35
2019-03-27T00:08:52.659Z,18.35
2019-03-27T00:09:52.769Z,18.35
2019-03-27T00:10:52.658Z,18.33
2019-03-27T00:11:52.488Z,18.33
2019-03-27T00:12:52.532Z,18.33
2019-03-27T00:13:52.531Z,18.32
2019-03-27T00:14:52.515Z,18.31
2019-03-27T00:15:52.611Z,18.3
2019-03-27T00:16:52.622Z,18.3
2019-03-27T00:17:52.564Z,18.3
2019-03-27T00:18:52.557Z,18.3
2019-03-27T00:19:52.590Z,18.29
2019-03-27T00:20:52.571Z,18.29
2019-03-27T00:21:52.731Z,18.28
2019-03-27T00:22:52.557Z,18.28
2019-03-27T00:23:52.739Z,18.28
2019-03-27T00:24:52.668Z,18.27
2019-03-27T00:25:52.659Z,18.27
2019-03-27T00:26:52.431Z,18.27
2019-03-27T00:27:52.717Z,18.25
2019-03-27T00:28:52.707Z,18.25
2019-03-27T00:29:52.683Z,18.25
2019-03-27T00:30:52.751Z,18.24
2019-03-27T00:31:54.379Z,18.23
2019-03-27T00:32:52.442Z,18.24
2019-03-27T00:33:52.593Z,18.23
2019-03-27T00:34:52.805Z,18.23
2019-03-27T00:35:52.482Z,18.23
2019-03-27T00:36:52.492Z,18.22
2019-03-27T00:37:52.606Z,18.22
2019-03-27T00:38:52.539Z,18.22
2019-03-27T00:39:52.594Z,18.21
2019-03-27T00:40:52.587Z,18.22
2019-03-27T00:41:52.690Z,18.21
2019-03-27T00:42:52.591Z,18.2
2019-03-27T00:43:52.612Z,18.21
2019-03-27T00:44:52.614Z,18.2
2019-03-27T00:45:52.691Z,18.2
2019-03-27T00:46:52.643Z,18.19
2019-03-27T00:47:52.768Z,18.19
2019-03-27T00:48:52.466Z,18.18
2019-03-27T00:49:52.572Z,18.18
2019-03-27T00:50:52.496Z,18.17
2019-03-27T00:51:52.414Z,18.18
2019-03-27T00:52:52.907Z,18.17
2019-03-27T00:53:52.553Z,18.17
2019-03-27T00:54:52.545Z,18.17
2019-03-27T00:55:52.523Z,18.16
2019-03-27T00:56:52.628Z,18.16
2019-03-27T00:57:52.493Z,18.16
2019-03-27T00:58:52.576Z,18.16
2019-03-27T00:59:52.600Z,18.16
2019-03-27T01:00:52.634Z,18.14
2019-03-27T01:01:52.622Z,18.15
2019-03-27T01:02:52.640Z,18.14
2019-03-27T01:03:52.660Z,18.13
2019-03-27T01:04:52.762Z,18.13
2019-03-27T01:05:52.442Z,18.13
2019-03-27T01:06:52.448Z,18.13
2019-03-27T01:07:52.522Z,18.12
2019-03-27T01:08:52.542Z,18.12
2019-03-27T01:09:52.579Z,18.12
2019-03-27T01:10:52.464Z,18.12
2019-03-27T01:11:52.494Z,18.11
2019-03-27T01:12:52.600Z,18.11
2019-03-27T01:13:52.451Z,18.11
2019-03-27T01:14:52.695Z,18.1
2019-03-27T01:15:52.539Z,18.1
2019-03-27T01:16:53.773Z,18.1
2019-03-27T01:17:52.620Z,18.1
2019-03-27T01:18:52.604Z,18.1
2019-03-27T01:19:52.585Z,18.1
2019-03-27T01:20:52.599Z,18.1
2019-03-27T01:21:52.805Z,18.09
2019-03-27T01:22:52.516Z,18.09
2019-03-27T01:23:52.769Z,18.08
2019-03-27T01:24:52.441Z,18.08
2019-03-27T01:25:52.542Z,18.08
2019-03-27T01:26:55.222Z,18.07
2019-03-27T01:27:52.590Z,18.07
2019-03-27T01:28:52.484Z,18.07
2019-03-27T01:29:52.413Z,18.07
2019-03-27T01:30:52.533Z,18.07
2019-03-27T01:31:52.534Z,18.06
2019-03-27T01:32:52.407Z,18.05
2019-03-27T01:33:52.678Z,18.05
2019-03-27T01:34:52.632Z,18.05
2019-03-27T01:35:52.681Z,18.05
2019-03-27T01:36:52.936Z,18.04
2019-03-27T01:37:52.598Z,18.04
2019-03-27T01:38:52.642Z,18.04
2019-03-27T01:39:52.673Z,18.04
2019-03-27T01:40:52.406Z,18.04
2019-03-27T01:41:52.738Z,18.04
2019-03-27T01:42:52.695Z,18.03
2019-03-27T01:43:52.407Z,18.02
2019-03-27T01:44:52.438Z,18.03
2019-03-27T01:45:53.705Z,18.03
2019-03-27T01:46:52.534Z,18.02
2019-03-27T01:47:52.419Z,18.02
2019-03-27T01:48:52.472Z,18.01
2019-03-27T01:49:52.470Z,18.01
2019-03-27T01:50:52.484Z,18
2019-03-27T01:51:52.613Z,18
2019-03-27T01:52:52.525Z,18
2019-03-27T01:53:52.699Z,17.99
2019-03-27T01:54:52.525Z,17.99
2019-03-27T01:55:52.637Z,17.99
2019-03-27T01:56:52.421Z,17.99
2019-03-27T01:57:53.094Z,17.99
2019-03-27T01:58:52.531Z,17.98
2019-03-27T01:59:52.625Z,17.98
2019-03-27T02:00:52.386Z,17.98
2019-03-27T02:01:52.676Z,17.98
2019-03-27T02:02:52.421Z,17.98
2019-03-27T02:03:52.447Z,17.98
2019-03-27T02:04:52.483Z,17.97
2019-03-27T02:05:52.454Z,17.97
2019-03-27T02:06:52.489Z,17.97
2019-03-27T02:07:52.538Z,17.96
2019-03-27T02:08:52.485Z,17.96
2019-03-27T02:09:52.601Z,17.96
2019-03-27T02:10:52.551Z,17.96
2019-03-27T02:11:52.581Z,17.95
2019-03-27T02:12:52.672Z,17.95
2019-03-27T02:13:52.548Z,17.95
2019-03-27T02:14:52.764Z,17.94
2019-03-27T02:16:07.767Z,17.94
2019-03-27T02:16:52.744Z,17.93
2019-03-27T02:17:52.739Z,17.94
2019-03-27T02:18:52.761Z,17.94
2019-03-27T02:19:53.089Z,17.93
2019-03-27T02:20:52.791Z,17.93
2019-03-27T02:21:52.585Z,17.92
2019-03-27T02:22:52.468Z,17.92
2019-03-27T02:23:52.419Z,17.93
2019-03-27T02:24:52.422Z,17.92
2019-03-27T02:25:52.376Z,17.92
2019-03-27T02:26:52.496Z,17.92
2019-03-27T02:27:52.452Z,17.92
2019-03-27T02:28:52.558Z,17.92
2019-03-27T02:29:52.384Z,17.91
2019-03-27T02:30:52.528Z,17.91
2019-03-27T02:31:52.620Z,17.91
2019-03-27T02:32:52.703Z,17.91
2019-03-27T02:33:52.585Z,17.9
2019-03-27T02:34:52.649Z,17.9
2019-03-27T02:35:52.594Z,17.89
2019-03-27T02:36:52.602Z,17.89
2019-03-27T02:37:52.619Z,17.89
2019-03-27T02:38:52.731Z,17.88
2019-03-27T02:39:52.610Z,17.89
2019-03-27T02:40:52.559Z,17.88
2019-03-27T02:41:52.446Z,17.88
2019-03-27T02:42:52.576Z,17.88
2019-03-27T02:43:52.515Z,17.87
2019-03-27T02:44:52.468Z,17.87
2019-03-27T02:45:52.406Z,17.86
2019-03-27T02:46:52.515Z,17.87
2019-03-27T02:47:52.625Z,17.87
2019-03-27T02:48:52.570Z,17.86
2019-03-27T02:49:53.413Z,17.87
2019-03-27T02:50:52.612Z,17.86
2019-03-27T02:51:52.714Z,17.86
2019-03-27T02:52:52.383Z,17.86
2019-03-27T02:53:52.674Z,17.86
2019-03-27T02:54:52.669Z,17.86
2019-03-27T02:55:52.623Z,17.86
2019-03-27T02:56:52.392Z,17.86
2019-03-27T02:57:52.665Z,17.85
2019-03-27T02:58:52.722Z,17.85
2019-03-27T02:59:52.423Z,17.84
2019-03-27T03:00:52.447Z,17.84
2019-03-27T03:01:52.944Z,17.84
2019-03-27T03:02:52.419Z,17.84
2019-03-27T03:03:52.495Z,17.84
2019-03-27T03:04:52.555Z,17.84
2019-03-27T03:05:52.793Z,17.84
2019-03-27T03:06:52.545Z,17.83
2019-03-27T03:07:52.505Z,17.83
2019-03-27T03:08:52.388Z,17.83
2019-03-27T03:09:52.593Z,17.82
2019-03-27T03:10:52.705Z,17.83
2019-03-27T03:11:52.599Z,17.83
2019-03-27T03:12:52.476Z,17.81
2019-03-27T03:13:52.756Z,17.81
2019-03-27T03:14:52.917Z,17.81
2019-03-27T03:15:52.678Z,17.82
2019-03-27T03:16:52.415Z,17.81
2019-03-27T03:17:52.539Z,17.81
2019-03-27T03:18:52.618Z,17.8
2019-03-27T03:19:52.543Z,17.8
2019-03-27T03:20:52.589Z,17.8
2019-03-27T03:21:52.640Z,17.8
2019-03-27T03:22:52.650Z,17.8
2019-03-27T03:23:53.484Z,17.79
2019-03-27T03:24:52.580Z,17.79
2019-03-27T03:25:52.796Z,17.79
2019-03-27T03:26:52.606Z,17.79
2019-03-27T03:27:52.849Z,17.78
2019-03-27T03:28:52.621Z,17.78
2019-03-27T03:29:52.588Z,17.79
2019-03-27T03:30:52.763Z,17.78
2019-03-27T03:31:52.402Z,17.78
2019-03-27T03:32:52.910Z,17.78
2019-03-27T03:33:52.684Z,17.78
2019-03-27T03:34:52.427Z,17.77
2019-03-27T03:35:52.748Z,17.77
2019-03-27T03:36:52.444Z,17.77
2019-03-27T03:37:52.463Z,17.76
2019-03-27T03:38:52.624Z,17.76
2019-03-27T03:39:52.496Z,17.78
2019-03-27T03:40:53.144Z,17.76
2019-03-27T03:41:52.472Z,17.77
2019-03-27T03:42:52.499Z,17.76
2019-03-27T03:43:52.448Z,17.76
2019-03-27T03:44:52.597Z,17.76
2019-03-27T03:45:54.374Z,17.76
2019-03-27T03:47:00.899Z,17.75
2019-03-27T03:47:52.516Z,17.75
2019-03-27T03:48:52.619Z,17.75
2019-03-27T03:49:52.615Z,17.75
2019-03-27T03:50:52.576Z,17.75
2019-03-27T03:51:52.604Z,17.75
2019-03-27T03:52:52.436Z,17.75
2019-03-27T03:53:52.421Z,17.74
2019-03-27T03:54:52.370Z,17.74
2019-03-27T03:55:52.454Z,17.73
2019-03-27T03:56:52.666Z,17.74
2019-03-27T03:57:52.506Z,17.73
2019-03-27T03:58:52.383Z,17.73
2019-03-27T03:59:52.614Z,17.73
2019-03-27T04:00:52.666Z,17.73
2019-03-27T04:01:52.416Z,17.73
2019-03-27T04:02:52.627Z,17.72
2019-03-27T04:03:52.574Z,17.73
2019-03-27T04:04:52.621Z,17.73
2019-03-27T04:05:52.712Z,17.72
2019-03-27T04:06:52.864Z,17.72
2019-03-27T04:07:52.660Z,17.71
2019-03-27T04:08:52.902Z,17.72
2019-03-27T04:09:52.394Z,17.72
2019-03-27T04:10:52.512Z,17.72
2019-03-27T04:11:52.884Z,17.72
2019-03-27T04:12:52.455Z,17.71
2019-03-27T04:13:52.458Z,17.71
2019-03-27T04:14:52.431Z,17.71
2019-03-27T04:15:52.438Z,17.71
2019-03-27T04:16:52.625Z,17.7
2019-03-27T04:17:52.578Z,17.71
2019-03-27T04:18:52.509Z,17.71
2019-03-27T04:19:52.580Z,17.71
2019-03-27T04:20:52.505Z,17.7
2019-03-27T04:21:52.890Z,17.7
2019-03-27T04:22:52.538Z,17.69
2019-03-27T04:23:52.707Z,17.69
2019-03-27T04:24:52.714Z,17.69
2019-03-27T04:26:11.419Z,17.69
2019-03-27T04:26:52.680Z,17.68
2019-03-27T04:27:52.617Z,17.67
2019-03-27T04:28:52.738Z,17.67
2019-03-27T04:29:52.464Z,17.68
2019-03-27T04:30:52.443Z,17.68
2019-03-27T04:31:52.517Z,17.68
2019-03-27T04:32:52.558Z,17.67
2019-03-27T04:33:52.522Z,17.67
2019-03-27T04:34:52.499Z,17.67
2019-03-27T04:35:52.630Z,17.67
2019-03-27T04:36:52.521Z,17.67
2019-03-27T04:37:52.512Z,17.67
2019-03-27T04:38:52.549Z,17.67
2019-03-27T04:39:52.624Z,17.67
2019-03-27T04:40:52.544Z,17.67
2019-03-27T04:41:52.584Z,17.67
2019-03-27T04:42:52.553Z,17.68
2019-03-27T04:43:52.676Z,17.68
2019-03-27T04:44:52.688Z,17.69
2019-03-27T04:45:52.625Z,17.69
2019-03-27T04:46:52.332Z,17.69
2019-03-27T04:47:52.469Z,17.71
2019-03-27T04:48:52.365Z,17.7
2019-03-27T04:49:52.651Z,17.71
2019-03-27T04:50:53.422Z,17.73
2019-03-27T04:51:52.406Z,17.73
2019-03-27T04:52:52.422Z,17.74
2019-03-27T04:53:52.507Z,17.75
2019-03-27T04:54:52.455Z,17.76
2019-03-27T04:55:52.451Z,17.77
2019-03-27T04:56:52.479Z,17.79
2019-03-27T04:57:52.488Z,17.79
2019-03-27T04:58:52.512Z,17.81
2019-03-27T04:59:52.496Z,17.82
2019-03-27T05:00:52.546Z,17.83
2019-03-27T05:01:52.553Z,17.86
2019-03-27T05:02:52.543Z,17.86
2019-03-27T05:03:52.563Z,17.89
2019-03-27T05:04:52.388Z,17.91
2019-03-27T05:05:52.438Z,17.92
2019-03-27T05:06:52.506Z,17.94
2019-03-27T05:07:52.515Z,17.96
2019-03-27T05:08:52.426Z,17.98
2019-03-27T05:09:52.422Z,17.99
2019-03-27T05:10:52.466Z,18.02
2019-03-27T05:11:52.562Z,18.04
2019-03-27T05:12:52.597Z,18.05
2019-03-27T05:13:52.509Z,18.08
2019-03-27T05:14:52.506Z,18.1
2019-03-27T05:15:52.489Z,18.11
2019-03-27T05:16:52.491Z,18.13
2019-03-27T05:17:52.625Z,18.14
2019-03-27T05:18:52.665Z,18.17
2019-03-27T05:19:52.598Z,18.18
2019-03-27T05:20:52.590Z,18.19
2019-03-27T05:21:52.578Z,18.22
2019-03-27T05:22:52.334Z,18.23
2019-03-27T05:23:52.310Z,18.24
2019-03-27T05:24:52.336Z,18.26
2019-03-27T05:25:52.335Z,18.28
2019-03-27T05:26:52.372Z,18.29
2019-03-27T05:27:52.338Z,18.3
2019-03-27T05:28:52.387Z,18.31
2019-03-27T05:29:52.380Z,18.33
2019-03-27T05:30:52.410Z,18.35
2019-03-27T05:31:52.456Z,18.35
2019-03-27T05:32:52.551Z,18.36
2019-03-27T05:33:52.806Z,18.38
2019-03-27T05:34:52.470Z,18.4
2019-03-27T05:35:52.479Z,18.41
2019-03-27T05:36:52.489Z,18.42
2019-03-27T05:37:52.650Z,18.44
2019-03-27T05:38:52.678Z,18.45
2019-03-27T05:39:52.526Z,18.47
2019-03-27T05:40:52.542Z,18.48
2019-03-27T05:41:52.363Z,18.49
2019-03-27T05:43:01.584Z,18.5
2019-03-27T05:43:52.375Z,18.52
2019-03-27T05:44:52.519Z,18.53
2019-03-27T05:45:52.396Z,18.54
2019-03-27T05:46:52.409Z,18.55
2019-03-27T05:48:00.335Z,18.55
2019-03-27T05:48:52.558Z,18.56
2019-03-27T05:49:52.452Z,18.58
2019-03-27T05:50:52.474Z,18.59
2019-03-27T05:51:52.574Z,18.6
2019-03-27T05:52:52.607Z,18.61
2019-03-27T05:53:52.571Z,18.62
2019-03-27T05:54:52.718Z,18.62
2019-03-27T05:55:52.622Z,18.64
2019-03-27T05:56:52.572Z,18.64
2019-03-27T05:57:52.557Z,18.65
2019-03-27T05:58:52.741Z,18.66
2019-03-27T05:59:52.592Z,18.67
2019-03-27T06:00:52.315Z,18.67
2019-03-27T06:01:52.490Z,18.68
2019-03-27T06:02:52.465Z,18.69
2019-03-27T06:03:52.357Z,18.7
2019-03-27T06:04:52.542Z,18.71
2019-03-27T06:05:52.411Z,18.72
2019-03-27T06:06:52.361Z,18.72
2019-03-27T06:07:52.398Z,18.72
2019-03-27T06:08:52.422Z,18.72
2019-03-27T06:09:52.588Z,18.73
2019-03-27T06:10:52.601Z,18.74
2019-03-27T06:11:52.605Z,18.74
2019-03-27T06:12:52.605Z,18.75
2019-03-27T06:13:52.482Z,18.76
2019-03-27T06:14:52.499Z,18.76
2019-03-27T06:15:52.614Z,18.77
2019-03-27T06:16:52.873Z,18.78
2019-03-27T06:17:52.549Z,18.78
2019-03-27T06:18:52.424Z,18.78
2019-03-27T06:19:52.346Z,18.78
2019-03-27T06:20:52.370Z,18.79
2019-03-27T06:21:52.362Z,18.79
2019-03-27T06:22:52.411Z,18.79
2019-03-27T06:23:52.457Z,18.8
2019-03-27T06:24:52.466Z,18.8
2019-03-27T06:25:52.453Z,18.81
2019-03-27T06:26:52.528Z,18.81
2019-03-27T06:27:52.461Z,18.82
2019-03-27T06:28:52.468Z,18.83
2019-03-27T06:29:52.548Z,18.82
2019-03-27T06:30:52.539Z,18.83
2019-03-27T06:31:52.519Z,18.84
2019-03-27T06:32:52.525Z,18.83
2019-03-27T06:33:52.650Z,18.84
2019-03-27T06:34:52.582Z,18.84
2019-03-27T06:35:52.580Z,18.85
2019-03-27T06:36:52.720Z,18.84
2019-03-27T06:37:53.019Z,18.84
2019-03-27T06:38:52.272Z,18.84
2019-03-27T06:39:52.303Z,18.84
2019-03-27T06:40:52.359Z,18.84
2019-03-27T06:41:52.385Z,18.84
2019-03-27T06:42:52.391Z,18.84
2019-03-27T06:43:52.371Z,18.84
2019-03-27T06:44:52.513Z,18.85
2019-03-27T06:45:52.510Z,18.85
2019-03-27T06:46:52.426Z,18.85
2019-03-27T06:47:52.446Z,18.85
2019-03-27T06:48:52.462Z,18.85
2019-03-27T06:49:52.547Z,18.86
2019-03-27T06:50:52.467Z,18.86
2019-03-27T06:51:52.503Z,18.85
2019-03-27T06:52:52.499Z,18.86
2019-03-27T06:53:52.508Z,18.86
2019-03-27T06:54:52.657Z,18.86
2019-03-27T06:55:52.321Z,18.86
2019-03-27T06:56:52.377Z,18.86
2019-03-27T06:57:52.461Z,18.86
2019-03-27T06:58:55.434Z,18.86
2019-03-27T06:59:52.707Z,18.86
2019-03-27T07:00:52.380Z,18.86
2019-03-27T07:01:52.525Z,18.86
2019-03-27T07:02:52.580Z,18.86
2019-03-27T07:03:52.571Z,18.87
2019-03-27T07:04:52.457Z,18.86
2019-03-27T07:05:52.608Z,18.87
2019-03-27T07:06:52.509Z,18.87
2019-03-27T07:07:52.453Z,18.87
2019-03-27T07:08:52.487Z,18.87
2019-03-27T07:09:52.652Z,18.87
2019-03-27T07:10:52.659Z,18.87
2019-03-27T07:11:52.502Z,18.87
2019-03-27T07:12:52.704Z,18.86
2019-03-27T07:13:52.408Z,18.88
2019-03-27T07:14:52.280Z,18.86
2019-03-27T07:15:52.300Z,18.86
2019-03-27T07:16:52.388Z,18.86
2019-03-27T07:17:52.298Z,18.87
2019-03-27T07:18:52.357Z,18.87
2019-03-27T07:19:52.396Z,18.87
2019-03-27T07:20:52.728Z,18.87
2019-03-27T07:21:52.386Z,18.87
2019-03-27T07:22:52.470Z,18.87
2019-03-27T07:23:52.402Z,18.87
2019-03-27T07:24:52.413Z,18.87
2019-03-27T07:25:52.520Z,18.87
2019-03-27T07:26:52.554Z,18.87
2019-03-27T07:27:52.502Z,18.88
2019-03-27T07:28:52.563Z,18.87
2019-03-27T07:29:52.583Z,18.87
2019-03-27T07:30:52.616Z,18.88
2019-03-27T07:31:52.664Z,18.87
2019-03-27T07:32:52.390Z,18.88
2019-03-27T07:33:52.433Z,18.88
2019-03-27T07:34:52.388Z,18.87
2019-03-27T07:35:52.474Z,18.87
2019-03-27T07:36:52.445Z,18.86
2019-03-27T07:37:52.383Z,18.87
2019-03-27T07:38:52.424Z,18.87
2019-03-27T07:39:52.509Z,18.87
2019-03-27T07:40:52.490Z,18.87
2019-03-27T07:41:52.784Z,18.87
2019-03-27T07:42:52.780Z,18.88
2019-03-27T07:43:52.468Z,18.88
2019-03-27T07:44:52.477Z,18.88
2019-03-27T07:45:52.748Z,18.88
2019-03-27T07:46:52.513Z,18.89
2019-03-27T07:47:52.551Z,18.88
2019-03-27T07:48:54.753Z,18.9
2019-03-27T07:49:52.500Z,18.89
2019-03-27T07:50:52.300Z,18.89
2019-03-27T07:51:52.309Z,18.89
2019-03-27T07:52:52.309Z,18.89
2019-03-27T07:53:52.336Z,18.9
2019-03-27T07:54:52.351Z,18.89
2019-03-27T07:55:52.350Z,18.89
2019-03-27T07:56:52.380Z,18.9
2019-03-27T07:57:52.499Z,18.89
2019-03-27T07:58:52.684Z,18.89
2019-03-27T07:59:52.395Z,18.89
2019-03-27T08:00:52.420Z,18.89
2019-03-27T08:01:52.442Z,18.88
2019-03-27T08:02:52.437Z,18.88
2019-03-27T08:03:52.596Z,18.89
2019-03-27T08:04:52.515Z,18.88
2019-03-27T08:05:52.508Z,18.87
2019-03-27T08:06:52.503Z,18.88
2019-03-27T08:07:52.356Z,18.88
2019-03-27T08:08:52.580Z,18.9
2019-03-27T08:09:52.305Z,18.9
2019-03-27T08:10:52.405Z,18.91
2019-03-27T08:11:52.463Z,18.91
2019-03-27T08:12:52.378Z,18.92
2019-03-27T08:13:52.524Z,18.93
2019-03-27T08:14:52.571Z,18.94
2019-03-27T08:15:52.564Z,18.95
2019-03-27T08:16:52.567Z,18.97
2019-03-27T08:17:52.464Z,18.97
2019-03-27T08:18:52.473Z,18.98
2019-03-27T08:19:52.505Z,18.99
2019-03-27T08:20:52.505Z,19.01
2019-03-27T08:21:52.629Z,19.03
2019-03-27T08:22:52.622Z,19.04
2019-03-27T08:23:52.403Z,19.05
2019-03-27T08:24:52.279Z,19.06
2019-03-27T08:25:52.877Z,19.05
2019-03-27T08:26:52.805Z,19.05
2019-03-27T08:27:52.308Z,19.06
2019-03-27T08:28:52.317Z,19.06
2019-03-27T08:29:52.339Z,19.07
2019-03-27T08:30:52.347Z,19.07
2019-03-27T08:31:52.565Z,19.08
2019-03-27T08:32:52.421Z,19.08
2019-03-27T08:33:52.549Z,19.08
2019-03-27T08:34:52.407Z,19.09
2019-03-27T08:35:52.538Z,19.09
2019-03-27T08:36:52.467Z,19.09
2019-03-27T08:37:52.474Z,19.1
2019-03-27T08:38:52.620Z,19.11
2019-03-27T08:39:52.463Z,19.13
2019-03-27T08:40:52.380Z,19.13
2019-03-27T08:41:52.302Z,19.13
2019-03-27T08:42:52.320Z,19.13
2019-03-27T08:43:52.338Z,19.13
2019-03-27T08:44:52.463Z,19.14
2019-03-27T08:45:52.421Z,19.14
2019-03-27T08:46:52.321Z,19.14
2019-03-27T08:47:52.743Z,19.14
2019-03-27T08:48:52.373Z,19.15
2019-03-27T08:49:52.400Z,19.15
2019-03-27T08:50:52.462Z,19.15
2019-03-27T08:51:52.478Z,19.16
2019-03-27T08:52:52.437Z,19.16
2019-03-27T08:53:52.429Z,19.15
2019-03-27T08:54:52.438Z,19.15
2019-03-27T08:55:52.450Z,19.14
2019-03-27T08:56:52.554Z,19.13
2019-03-27T08:57:52.499Z,19.13
2019-03-27T08:58:52.535Z,19.12
2019-03-27T08:59:52.559Z,19.11
2019-03-27T09:00:52.262Z,19.12
2019-03-27T09:01:52.384Z,19.1
2019-03-27T09:02:52.287Z,19.11
2019-03-27T09:03:52.483Z,19.15
2019-03-27T09:04:52.495Z,19.14
2019-03-27T09:05:52.317Z,19.13
2019-03-27T09:06:52.589Z,19.13
2019-03-27T09:07:52.374Z,19.14
2019-03-27T09:08:52.553Z,19.15
2019-03-27T09:09:53.748Z,19.15
2019-03-27T09:10:52.555Z,19.15
2019-03-27T09:11:52.417Z,19.15
2019-03-27T09:12:52.718Z,19.16
2019-03-27T09:13:52.477Z,19.17
2019-03-27T09:14:52.494Z,19.17
2019-03-27T09:15:52.561Z,19.17
2019-03-27T09:16:52.362Z,19.16
2019-03-27T09:17:52.388Z,19.17
2019-03-27T09:18:52.330Z,19.17
2019-03-27T09:19:52.411Z,19.16
2019-03-27T09:20:52.381Z,19.15
2019-03-27T09:21:52.410Z,19.15
2019-03-27T09:22:52.415Z,19.15
2019-03-27T09:23:52.451Z,19.15
2019-03-27T09:24:52.464Z,19.14
2019-03-27T09:25:52.403Z,19.15
2019-03-27T09:26:52.438Z,19.14
2019-03-27T09:27:52.552Z,19.15
2019-03-27T09:28:52.454Z,19.14
2019-03-27T09:29:52.468Z,19.14
2019-03-27T09:30:52.623Z,19.13
2019-03-27T09:31:52.535Z,19.13
2019-03-27T09:32:52.503Z,19.13
2019-03-27T09:33:52.514Z,19.13
2019-03-27T09:34:52.512Z,19.13
2019-03-27T09:35:52.729Z,19.13
2019-03-27T09:36:52.321Z,19.12
2019-03-27T09:37:52.266Z,19.12
2019-03-27T09:38:52.280Z,19.12
2019-03-27T09:39:52.416Z,19.12
2019-03-27T09:40:52.354Z,19.11
2019-03-27T09:41:52.625Z,19.11
2019-03-27T09:42:52.332Z,19.1
2019-03-27T09:43:52.506Z,19.11
2019-03-27T09:44:52.347Z,19.11
2019-03-27T09:45:52.491Z,19.1
2019-03-27T09:46:52.429Z,19.1
2019-03-27T09:47:52.442Z,19.1
2019-03-27T09:48:52.448Z,19.09
2019-03-27T09:49:52.572Z,19.09
2019-03-27T09:50:52.625Z,19.09
2019-03-27T09:51:52.616Z,19.1
2019-03-27T09:52:52.907Z,19.09
2019-03-27T09:53:53.617Z,19.09
2019-03-27T09:54:52.368Z,19.09
2019-03-27T09:55:52.276Z,19.09
2019-03-27T09:56:52.330Z,19.09
2019-03-27T09:57:52.354Z,19.09
2019-03-27T09:58:52.398Z,19.09
2019-03-27T09:59:52.363Z,19.09
2019-03-27T10:00:52.369Z,19.08
2019-03-27T10:01:52.351Z,19.08
2019-03-27T10:02:52.511Z,19.08
2019-03-27T10:03:52.504Z,19.08
2019-03-27T10:04:56.488Z,19.08
2019-03-27T10:05:52.409Z,19.09
2019-03-27T10:06:52.572Z,19.09
2019-03-27T10:07:52.542Z,19.08
2019-03-27T10:08:52.449Z,19.08
2019-03-27T10:09:52.527Z,19.08
2019-03-27T10:10:52.639Z,19.08
2019-03-27T10:11:52.473Z,19.09
2019-03-27T10:12:52.527Z,19.09
2019-03-27T10:13:52.583Z,19.09
2019-03-27T10:14:52.257Z,19.1
2019-03-27T10:15:52.274Z,19.12
2019-03-27T10:16:52.264Z,19.11
2019-03-27T10:17:52.371Z,19.13
2019-03-27T10:18:52.269Z,19.14
2019-03-27T10:20:04.535Z,19.15
2019-03-27T10:20:52.319Z,19.15
2019-03-27T10:21:52.300Z,19.16
2019-03-27T10:22:52.408Z,19.16
2019-03-27T10:23:52.458Z,19.17
2019-03-27T10:24:52.425Z,19.17
2019-03-27T10:25:52.411Z,19.17
2019-03-27T10:26:52.425Z,19.16
2019-03-27T10:27:52.587Z,19.16
2019-03-27T10:28:52.636Z,19.17
2019-03-27T10:29:52.436Z,19.18
2019-03-27T10:30:52.458Z,19.17
2019-03-27T10:31:52.497Z,19.16
2019-03-27T10:32:52.348Z,19.15
2019-03-27T10:33:52.297Z,19.15
2019-03-27T10:34:52.297Z,19.14
2019-03-27T10:35:52.325Z,19.14
2019-03-27T10:36:52.297Z,19.14
2019-03-27T10:37:52.282Z,19.14
2019-03-27T10:38:52.375Z,19.14
2019-03-27T10:39:52.486Z,19.13
2019-03-27T10:40:52.325Z,19.14
2019-03-27T10:41:52.481Z,19.14
2019-03-27T10:42:52.355Z,19.14
2019-03-27T10:43:52.441Z,19.13
2019-03-27T10:44:52.409Z,19.14
2019-03-27T10:45:52.562Z,19.13
2019-03-27T10:46:52.392Z,19.14
2019-03-27T10:47:52.447Z,19.13
2019-03-27T10:48:53.409Z,19.13
2019-03-27T10:49:52.492Z,19.13
2019-03-27T10:50:52.583Z,19.14
2019-03-27T10:51:52.469Z,19.14
2019-03-27T10:52:52.609Z,19.14
2019-03-27T10:53:52.175Z,19.15
2019-03-27T10:54:52.217Z,19.14
2019-03-27T10:55:52.220Z,19.14
2019-03-27T10:56:52.538Z,19.14
2019-03-27T10:57:52.751Z,19.14
2019-03-27T10:58:52.270Z,19.15
2019-03-27T10:59:52.294Z,19.15
2019-03-27T11:00:52.419Z,19.15
2019-03-27T11:01:52.357Z,19.14
2019-03-27T11:02:52.461Z,19.14
2019-03-27T11:03:52.357Z,19.14
2019-03-27T11:04:52.350Z,19.15
2019-03-27T11:05:52.353Z,19.15
2019-03-27T11:06:52.375Z,19.15
2019-03-27T11:07:52.454Z,19.15
2019-03-27T11:08:52.445Z,19.15
2019-03-27T11:09:52.434Z,19.15
2019-03-27T11:10:52.456Z,19.15
2019-03-27T11:11:52.296Z,19.15
2019-03-27T11:12:52.229Z,19.15
2019-03-27T11:13:52.255Z,19.15
2019-03-27T11:14:52.366Z,19.15
2019-03-27T11:15:52.297Z,19.15
2019-03-27T11:16:52.292Z,19.15
2019-03-27T11:17:52.345Z,19.15
2019-03-27T11:18:52.720Z,19.15
2019-03-27T11:19:52.396Z,19.16
2019-03-27T11:20:52.411Z,19.16
2019-03-27T11:21:52.451Z,19.15
2019-03-27T11:22:52.374Z,19.16
2019-03-27T11:23:52.461Z,19.16
2019-03-27T11:24:52.428Z,19.15
2019-03-27T11:25:52.427Z,19.16
2019-03-27T11:26:52.444Z,19.15
2019-03-27T11:27:52.519Z,19.15
2019-03-27T11:28:52.441Z,19.16
2019-03-27T11:29:52.644Z,19.15
2019-03-27T11:30:52.571Z,19.16
2019-03-27T11:31:52.190Z,19.15
2019-03-27T11:32:52.583Z,19.15
2019-03-27T11:33:52.301Z,19.16
2019-03-27T11:34:52.240Z,19.16
2019-03-27T11:35:52.277Z,19.15
2019-03-27T11:36:52.266Z,19.15
2019-03-27T11:37:52.465Z,19.16
2019-03-27T11:38:52.468Z,19.16
2019-03-27T11:39:52.485Z,19.16
2019-03-27T11:40:52.326Z,19.15
2019-03-27T11:41:52.309Z,19.16
2019-03-27T11:42:53.465Z,19.16
2019-03-27T11:43:55.626Z,19.16
2019-03-27T11:44:52.410Z,19.15
2019-03-27T11:45:52.786Z,19.16
2019-03-27T11:46:52.397Z,19.16
2019-03-27T11:47:52.404Z,19.16
2019-03-27T11:48:52.401Z,19.17
2019-03-27T11:49:52.671Z,19.16
2019-03-27T11:50:52.244Z,19.16
2019-03-27T11:51:52.211Z,19.16
2019-03-27T11:52:52.311Z,19.18
2019-03-27T11:53:52.277Z,19.17
2019-03-27T11:54:52.478Z,19.18
2019-03-27T11:55:52.408Z,19.18
2019-03-27T11:56:52.334Z,19.17
2019-03-27T11:57:52.397Z,19.17
2019-03-27T11:58:52.330Z,19.18
2019-03-27T11:59:54.724Z,19.17
2019-03-27T12:00:55.440Z,19.17
2019-03-27T12:01:52.359Z,19.18
2019-03-27T12:02:52.379Z,19.17
2019-03-27T12:03:52.382Z,19.18
2019-03-27T12:04:52.382Z,19.18
2019-03-27T12:05:52.519Z,19.18
2019-03-27T12:06:52.797Z,19.18
2019-03-27T12:07:52.683Z,19.18
2019-03-27T12:08:52.448Z,19.18
2019-03-27T12:09:52.233Z,19.18
2019-03-27T12:10:52.370Z,19.18
2019-03-27T12:11:52.269Z,19.18
2019-03-27T12:12:52.306Z,19.19
2019-03-27T12:13:52.371Z,19.18
2019-03-27T12:14:52.255Z,19.19
2019-03-27T12:15:52.224Z,19.19
2019-03-27T12:16:52.265Z,19.19
2019-03-27T12:17:52.296Z,19.19
2019-03-27T12:18:53.407Z,19.19
2019-03-27T12:19:52.280Z,19.2
2019-03-27T12:20:59.959Z,19.2
2019-03-27T12:21:55.291Z,19.21
2019-03-27T12:22:58.240Z,19.19
2019-03-27T12:23:52.477Z,19.19
2019-03-27T12:24:52.579Z,19.19
2019-03-27T12:25:55.718Z,19.18
2019-03-27T12:26:52.370Z,19.19
2019-03-27T12:27:52.478Z,19.18
2019-03-27T12:28:52.482Z,19.18
2019-03-27T12:29:52.296Z,19.18
2019-03-27T12:30:52.230Z,19.18
2019-03-27T12:31:52.245Z,19.18
2019-03-27T12:32:52.324Z,19.17
2019-03-27T12:33:52.381Z,19.17
2019-03-27T12:34:52.277Z,19.17
2019-03-27T12:35:52.380Z,19.17
2019-03-27T12:36:52.303Z,19.17
2019-03-27T12:37:52.551Z,19.18
2019-03-27T12:38:52.474Z,19.19
2019-03-27T12:39:52.439Z,19.19
2019-03-27T12:40:52.431Z,19.19
2019-03-27T12:41:52.508Z,19.19
2019-03-27T12:42:52.523Z,19.19
2019-03-27T12:43:52.389Z,19.2
2019-03-27T12:44:52.504Z,19.2
2019-03-27T12:45:52.417Z,19.2
2019-03-27T12:46:52.560Z,19.2
2019-03-27T12:47:52.166Z,19.21
2019-03-27T12:48:52.257Z,19.21
2019-03-27T12:49:52.349Z,19.21
2019-03-27T12:50:52.346Z,19.21
2019-03-27T12:51:52.333Z,19.21
2019-03-27T12:52:52.354Z,19.21
2019-03-27T12:53:52.356Z,19.22
2019-03-27T12:54:52.251Z,19.22